sensor_id;sensor_type;location;lat;lon;timestamp;P1;durP1;ratioP1;P2;durP2;ratioP2
64252;SDS011;50592;52.958;-7.470;2022-11-20T00:01:13;34.78;;;6.32;;
64252;SDS011;50592;52.958;-7.470;2022-11-20T00:03:41;27.63;;;4.32;;
64252;SDS011;50592;52.958;-7.470;2022-11-20T00:06:16;22.77;;;3.78;;
64252;SDS011;50592;52.958;-7.470;2022-11-20T00:08:43;33.95;;;5.05;;
64252;SDS011;50592;52.958;-7.470;2022-11-20T00:11:13;33.05;;;4.47;;
64252;SDS011;50592;52.958;-7.470;2022-11-20T00:13:44;29.58;;;5.00;;
64252;SDS011;50592;52.958;-7.470;2022-11-20T00:16:11;34.67;;;5.28;;
64252;SDS011;50592;52.958;-7.470;2022-11-20T00:18:37;23.38;;;4.75;;
64252;SDS011;50592;52.958;-7.470;2022-11-20T00:21:07;32.70;;;4.28;;
64252;SDS011;50592;52.958;-7.470;2022-11-20T00:23:35;35.22;;;6.95;;
64252;SDS011;50592;52.958;-7.470;2022-11-20T00:26:05;29.45;;;4.15;;
64252;SDS011;50592;52.958;-7.470;2022-11-20T00:28:32;38.30;;;5.68;;
64252;SDS011;50592;52.958;-7.470;2022-11-20T00:31:06;24.88;;;4.93;;
64252;SDS011;50592;52.958;-7.470;2022-11-20T00:33:33;32.77;;;5.70;;
64252;SDS011;50592;52.958;-7.470;2022-11-20T00:36:21;27.25;;;4.53;;
64252;SDS011;50592;52.958;-7.470;2022-11-20T00:38:50;23.08;;;4.00;;
64252;SDS011;50592;52.958;-7.470;2022-11-20T00:41:17;28.77;;;4.68;;
64252;SDS011;50592;52.958;-7.470;2022-11-20T00:43:42;22.02;;;3.78;;
64252;SDS011;50592;52.958;-7.470;2022-11-20T00:46:09;34.97;;;6.60;;
64252;SDS011;50592;52.958;-7.470;2022-11-20T00:48:38;50.72;;;6.55;;
64252;SDS011;50592;52.958;-7.470;2022-11-20T00:51:04;36.60;;;4.05;;
64252;SDS011;50592;52.958;-7.470;2022-11-20T00:53:30;34.08;;;4.05;;
64252;SDS011;50592;52.958;-7.470;2022-11-20T00:56:00;39.60;;;5.65;;
64252;SDS011;50592;52.958;-7.470;2022-11-20T00:58:34;34.00;;;5.00;;
64252;SDS011;50592;52.958;-7.470;2022-11-20T01:01:09;32.05;;;4.43;;
64252;SDS011;50592;52.958;-7.470;2022-11-20T01:03:38;25.13;;;4.35;;
64252;SDS011;50592;52.958;-7.470;2022-11-20T01:06:07;29.45;;;5.25;;
64252;SDS011;50592;52.958;-7.470;2022-11-20T01:08:35;23.35;;;3.83;;
64252;SDS011;50592;52.958;-7.470;2022-11-20T01:11:03;32.53;;;4.38;;
64252;SDS011;50592;52.958;-7.470;2022-11-20T01:13:31;27.75;;;5.40;;
64252;SDS011;50592;52.958;-7.470;2022-11-20T01:18:31;32.70;;;4.00;;
64252;SDS011;50592;52.958;-7.470;2022-11-20T01:21:04;33.42;;;4.43;;
64252;SDS011;50592;52.958;-7.470;2022-11-20T01:23:36;28.40;;;4.20;;
64252;SDS011;50592;52.958;-7.470;2022-11-20T01:26:04;23.63;;;3.60;;
64252;SDS011;50592;52.958;-7.470;2022-11-20T01:28:32;27.95;;;3.83;;
64252;SDS011;50592;52.958;-7.470;2022-11-20T01:30:58;29.55;;;3.47;;
64252;SDS011;50592;52.958;-7.470;2022-11-20T01:33:24;34.40;;;3.83;;
64252;SDS011;50592;52.958;-7.470;2022-11-20T01:35:51;27.45;;;3.95;;
64252;SDS011;50592;52.958;-7.470;2022-11-20T01:38:17;34.47;;;4.70;;
64252;SDS011;50592;52.958;-7.470;2022-11-20T01:40:43;40.83;;;5.15;;
64252;SDS011;50592;52.958;-7.470;2022-11-20T01:43:13;27.25;;;4.22;;
64252;SDS011;50592;52.958;-7.470;2022-11-20T01:48:23;39.45;;;4.55;;
64252;SDS011;50592;52.958;-7.470;2022-11-20T01:50:52;35.50;;;5.47;;
64252;SDS011;50592;52.958;-7.470;2022-11-20T01:53:20;40.95;;;5.57;;
64252;SDS011;50592;52.958;-7.470;2022-11-20T01:55:49;21.42;;;3.97;;
64252;SDS011;50592;52.958;-7.470;2022-11-20T01:58:18;24.42;;;3.53;;
64252;SDS011;50592;52.958;-7.470;2022-11-20T02:00:48;34.75;;;7.15;;
64252;SDS011;50592;52.958;-7.470;2022-11-20T02:03:15;28.17;;;3.45;;
64252;SDS011;50592;52.958;-7.470;2022-11-20T02:05:53;32.63;;;4.95;;
64252;SDS011;50592;52.958;-7.470;2022-11-20T02:08:23;27.13;;;5.38;;
64252;SDS011;50592;52.958;-7.470;2022-11-20T02:10:49;38.03;;;4.68;;
64252;SDS011;50592;52.958;-7.470;2022-11-20T02:13:14;33.88;;;4.63;;
64252;SDS011;50592;52.958;-7.470;2022-11-20T02:15:59;28.98;;;4.38;;
64252;SDS011;50592;52.958;-7.470;2022-11-20T02:18:26;29.27;;;4.40;;
64252;SDS011;50592;52.958;-7.470;2022-11-20T02:20:54;40.08;;;5.10;;
64252;SDS011;50592;52.958;-7.470;2022-11-20T02:23:29;37.17;;;4.45;;
64252;SDS011;50592;52.958;-7.470;2022-11-20T02:26:28;35.42;;;4.82;;
64252;SDS011;50592;52.958;-7.470;2022-11-20T02:28:56;36.45;;;4.45;;
64252;SDS011;50592;52.958;-7.470;2022-11-20T02:31:26;29.65;;;5.47;;
64252;SDS011;50592;52.958;-7.470;2022-11-20T02:33:55;23.88;;;4.60;;
64252;SDS011;50592;52.958;-7.470;2022-11-20T02:36:22;27.48;;;4.72;;
64252;SDS011;50592;52.958;-7.470;2022-11-20T02:38:50;37.00;;;4.07;;
64252;SDS011;50592;52.958;-7.470;2022-11-20T02:41:16;33.05;;;3.83;;
64252;SDS011;50592;52.958;-7.470;2022-11-20T02:43:41;38.05;;;4.97;;
64252;SDS011;50592;52.958;-7.470;2022-11-20T02:46:07;38.95;;;4.85;;
64252;SDS011;50592;52.958;-7.470;2022-11-20T02:48:33;31.35;;;4.70;;
64252;SDS011;50592;52.958;-7.470;2022-11-20T02:50:59;40.08;;;4.60;;
64252;SDS011;50592;52.958;-7.470;2022-11-20T02:53:24;24.30;;;3.80;;
64252;SDS011;50592;52.958;-7.470;2022-11-20T02:55:50;26.20;;;3.97;;
64252;SDS011;50592;52.958;-7.470;2022-11-20T02:58:16;26.42;;;3.70;;
64252;SDS011;50592;52.958;-7.470;2022-11-20T03:00:41;27.10;;;4.68;;
64252;SDS011;50592;52.958;-7.470;2022-11-20T03:03:07;23.85;;;3.55;;
64252;SDS011;50592;52.958;-7.470;2022-11-20T03:05:33;28.90;;;3.65;;
64252;SDS011;50592;52.958;-7.470;2022-11-20T03:07:58;26.70;;;3.50;;
64252;SDS011;50592;52.958;-7.470;2022-11-20T03:10:24;22.77;;;3.03;;
64252;SDS011;50592;52.958;-7.470;2022-11-20T03:12:53;35.22;;;5.82;;
64252;SDS011;50592;52.958;-7.470;2022-11-20T03:15:21;23.65;;;3.38;;
64252;SDS011;50592;52.958;-7.470;2022-11-20T03:17:48;20.80;;;3.50;;
64252;SDS011;50592;52.958;-7.470;2022-11-20T03:20:13;22.77;;;2.72;;
64252;SDS011;50592;52.958;-7.470;2022-11-20T03:22:39;17.70;;;2.40;;
64252;SDS011;50592;52.958;-7.470;2022-11-20T03:25:05;20.08;;;3.90;;
64252;SDS011;50592;52.958;-7.470;2022-11-20T03:27:32;16.98;;;2.30;;
64252;SDS011;50592;52.958;-7.470;2022-11-20T03:29:59;18.30;;;3.13;;
64252;SDS011;50592;52.958;-7.470;2022-11-20T03:32:25;13.13;;;2.33;;
64252;SDS011;50592;52.958;-7.470;2022-11-20T03:34:51;18.52;;;2.30;;
64252;SDS011;50592;52.958;-7.470;2022-11-20T03:37:17;9.45;;;2.08;;
64252;SDS011;50592;52.958;-7.470;2022-11-20T03:39:42;11.63;;;2.05;;
64252;SDS011;50592;52.958;-7.470;2022-11-20T03:42:08;16.75;;;2.70;;
64252;SDS011;50592;52.958;-7.470;2022-11-20T03:44:54;16.55;;;2.17;;
64252;SDS011;50592;52.958;-7.470;2022-11-20T03:47:20;17.05;;;1.92;;
64252;SDS011;50592;52.958;-7.470;2022-11-20T03:49:46;18.48;;;2.28;;
64252;SDS011;50592;52.958;-7.470;2022-11-20T03:52:12;11.90;;;1.73;;
64252;SDS011;50592;52.958;-7.470;2022-11-20T03:54:38;11.60;;;1.55;;
64252;SDS011;50592;52.958;-7.470;2022-11-20T03:57:03;14.30;;;2.08;;
64252;SDS011;50592;52.958;-7.470;2022-11-20T03:59:29;16.52;;;3.97;;
64252;SDS011;50592;52.958;-7.470;2022-11-20T04:01:55;12.27;;;1.92;;
64252;SDS011;50592;52.958;-7.470;2022-11-20T04:04:20;15.27;;;2.13;;
64252;SDS011;50592;52.958;-7.470;2022-11-20T04:06:46;15.52;;;2.10;;
64252;SDS011;50592;52.958;-7.470;2022-11-20T04:09:12;11.30;;;2.22;;
64252;SDS011;50592;52.958;-7.470;2022-11-20T04:11:39;17.70;;;2.58;;
64252;SDS011;50592;52.958;-7.470;2022-11-20T04:14:06;12.82;;;1.70;;
64252;SDS011;50592;52.958;-7.470;2022-11-20T04:16:37;11.43;;;1.98;;
64252;SDS011;50592;52.958;-7.470;2022-11-20T04:19:04;13.00;;;1.98;;
64252;SDS011;50592;52.958;-7.470;2022-11-20T04:21:34;10.95;;;1.88;;
64252;SDS011;50592;52.958;-7.470;2022-11-20T04:24:01;8.18;;;1.55;;
64252;SDS011;50592;52.958;-7.470;2022-11-20T04:26:27;17.02;;;2.28;;
64252;SDS011;50592;52.958;-7.470;2022-11-20T04:28:54;12.70;;;1.45;;
64252;SDS011;50592;52.958;-7.470;2022-11-20T04:31:21;18.85;;;2.00;;
64252;SDS011;50592;52.958;-7.470;2022-11-20T04:33:49;10.23;;;1.55;;
64252;SDS011;50592;52.958;-7.470;2022-11-20T04:36:16;17.02;;;1.83;;
64252;SDS011;50592;52.958;-7.470;2022-11-20T04:38:43;16.42;;;1.50;;
64252;SDS011;50592;52.958;-7.470;2022-11-20T04:41:14;9.27;;;1.15;;
64252;SDS011;50592;52.958;-7.470;2022-11-20T04:43:41;11.85;;;1.48;;
64252;SDS011;50592;52.958;-7.470;2022-11-20T04:46:13;8.93;;;1.52;;
64252;SDS011;50592;52.958;-7.470;2022-11-20T04:48:39;10.02;;;1.50;;
64252;SDS011;50592;52.958;-7.470;2022-11-20T04:51:05;13.43;;;2.45;;
64252;SDS011;50592;52.958;-7.470;2022-11-20T04:53:31;12.55;;;1.65;;
64252;SDS011;50592;52.958;-7.470;2022-11-20T04:56:03;13.00;;;1.73;;
64252;SDS011;50592;52.958;-7.470;2022-11-20T04:58:31;14.20;;;1.65;;
64252;SDS011;50592;52.958;-7.470;2022-11-20T05:01:05;18.45;;;1.90;;
64252;SDS011;50592;52.958;-7.470;2022-11-20T05:03:41;13.65;;;1.75;;
64252;SDS011;50592;52.958;-7.470;2022-11-20T05:06:09;14.88;;;1.95;;
64252;SDS011;50592;52.958;-7.470;2022-11-20T05:08:39;16.13;;;1.40;;
64252;SDS011;50592;52.958;-7.470;2022-11-20T05:11:09;10.65;;;1.80;;
64252;SDS011;50592;52.958;-7.470;2022-11-20T05:13:37;17.10;;;1.98;;
64252;SDS011;50592;52.958;-7.470;2022-11-20T05:16:04;17.30;;;1.80;;
64252;SDS011;50592;52.958;-7.470;2022-11-20T05:18:35;15.30;;;2.25;;
64252;SDS011;50592;52.958;-7.470;2022-11-20T05:21:02;15.45;;;1.85;;
64252;SDS011;50592;52.958;-7.470;2022-11-20T05:23:29;18.02;;;2.45;;
64252;SDS011;50592;52.958;-7.470;2022-11-20T05:25:56;25.60;;;2.90;;
64252;SDS011;50592;52.958;-7.470;2022-11-20T05:28:22;12.85;;;1.88;;
64252;SDS011;50592;52.958;-7.470;2022-11-20T05:30:49;20.10;;;2.42;;
64252;SDS011;50592;52.958;-7.470;2022-11-20T05:33:15;14.35;;;1.77;;
64252;SDS011;50592;52.958;-7.470;2022-11-20T05:35:41;17.52;;;2.05;;
64252;SDS011;50592;52.958;-7.470;2022-11-20T05:38:07;20.48;;;2.30;;
64252;SDS011;50592;52.958;-7.470;2022-11-20T05:40:33;19.75;;;2.08;;
64252;SDS011;50592;52.958;-7.470;2022-11-20T05:42:59;11.00;;;1.77;;
64252;SDS011;50592;52.958;-7.470;2022-11-20T05:45:26;18.10;;;2.55;;
64252;SDS011;50592;52.958;-7.470;2022-11-20T05:47:52;14.73;;;1.98;;
64252;SDS011;50592;52.958;-7.470;2022-11-20T05:50:18;17.67;;;1.85;;
64252;SDS011;50592;52.958;-7.470;2022-11-20T05:52:44;14.55;;;2.35;;
64252;SDS011;50592;52.958;-7.470;2022-11-20T05:55:09;22.35;;;3.63;;
64252;SDS011;50592;52.958;-7.470;2022-11-20T05:57:35;13.05;;;2.63;;
64252;SDS011;50592;52.958;-7.470;2022-11-20T06:00:02;17.27;;;2.65;;
64252;SDS011;50592;52.958;-7.470;2022-11-20T06:02:30;17.83;;;2.38;;
64252;SDS011;50592;52.958;-7.470;2022-11-20T06:04:55;17.35;;;3.50;;
64252;SDS011;50592;52.958;-7.470;2022-11-20T06:07:21;28.77;;;4.30;;
64252;SDS011;50592;52.958;-7.470;2022-11-20T06:09:47;15.80;;;2.05;;
64252;SDS011;50592;52.958;-7.470;2022-11-20T06:12:13;23.23;;;2.78;;
64252;SDS011;50592;52.958;-7.470;2022-11-20T06:14:38;31.00;;;2.72;;
64252;SDS011;50592;52.958;-7.470;2022-11-20T06:17:04;19.15;;;2.35;;
64252;SDS011;50592;52.958;-7.470;2022-11-20T06:19:30;21.80;;;2.88;;
64252;SDS011;50592;52.958;-7.470;2022-11-20T06:21:56;15.60;;;2.33;;
64252;SDS011;50592;52.958;-7.470;2022-11-20T06:24:21;24.17;;;4.22;;
64252;SDS011;50592;52.958;-7.470;2022-11-20T06:26:48;15.23;;;1.88;;
64252;SDS011;50592;52.958;-7.470;2022-11-20T06:29:13;15.48;;;2.47;;
64252;SDS011;50592;52.958;-7.470;2022-11-20T06:31:39;18.63;;;4.43;;
64252;SDS011;50592;52.958;-7.470;2022-11-20T06:34:05;14.15;;;1.85;;
64252;SDS011;50592;52.958;-7.470;2022-11-20T06:36:31;19.65;;;2.85;;
64252;SDS011;50592;52.958;-7.470;2022-11-20T06:38:57;23.98;;;3.25;;
64252;SDS011;50592;52.958;-7.470;2022-11-20T06:41:23;19.13;;;2.22;;
64252;SDS011;50592;52.958;-7.470;2022-11-20T06:43:49;18.85;;;2.70;;
64252;SDS011;50592;52.958;-7.470;2022-11-20T06:46:16;18.52;;;2.13;;
64252;SDS011;50592;52.958;-7.470;2022-11-20T06:48:45;15.77;;;2.55;;
64252;SDS011;50592;52.958;-7.470;2022-11-20T06:51:12;22.58;;;2.20;;
64252;SDS011;50592;52.958;-7.470;2022-11-20T06:53:38;22.50;;;2.17;;
64252;SDS011;50592;52.958;-7.470;2022-11-20T06:56:04;21.42;;;2.20;;
64252;SDS011;50592;52.958;-7.470;2022-11-20T06:58:31;14.02;;;2.08;;
64252;SDS011;50592;52.958;-7.470;2022-11-20T07:00:59;20.45;;;2.28;;
64252;SDS011;50592;52.958;-7.470;2022-11-20T07:03:26;15.73;;;2.30;;
64252;SDS011;50592;52.958;-7.470;2022-11-20T07:05:56;21.90;;;2.00;;
64252;SDS011;50592;52.958;-7.470;2022-11-20T07:08:22;17.38;;;2.40;;
64252;SDS011;50592;52.958;-7.470;2022-11-20T07:10:49;22.38;;;4.28;;
64252;SDS011;50592;52.958;-7.470;2022-11-20T07:13:14;20.00;;;3.40;;
64252;SDS011;50592;52.958;-7.470;2022-11-20T07:15:40;26.02;;;3.05;;
64252;SDS011;50592;52.958;-7.470;2022-11-20T07:18:06;17.33;;;2.75;;
64252;SDS011;50592;52.958;-7.470;2022-11-20T07:20:31;28.98;;;8.10;;
64252;SDS011;50592;52.958;-7.470;2022-11-20T07:22:57;17.15;;;2.30;;
64252;SDS011;50592;52.958;-7.470;2022-11-20T07:25:24;20.17;;;2.78;;
64252;SDS011;50592;52.958;-7.470;2022-11-20T07:27:50;15.02;;;2.00;;
64252;SDS011;50592;52.958;-7.470;2022-11-20T07:30:16;18.20;;;3.90;;
64252;SDS011;50592;52.958;-7.470;2022-11-20T07:32:45;13.43;;;2.45;;
64252;SDS011;50592;52.958;-7.470;2022-11-20T07:35:12;21.30;;;2.53;;
64252;SDS011;50592;52.958;-7.470;2022-11-20T07:37:38;17.40;;;2.65;;
64252;SDS011;50592;52.958;-7.470;2022-11-20T07:40:04;15.15;;;2.08;;
64252;SDS011;50592;52.958;-7.470;2022-11-20T07:42:30;19.10;;;2.65;;
64252;SDS011;50592;52.958;-7.470;2022-11-20T07:44:55;17.83;;;1.85;;
64252;SDS011;50592;52.958;-7.470;2022-11-20T07:47:21;22.33;;;2.47;;
64252;SDS011;50592;52.958;-7.470;2022-11-20T07:49:47;26.80;;;2.38;;
64252;SDS011;50592;52.958;-7.470;2022-11-20T07:52:12;16.98;;;2.33;;
64252;SDS011;50592;52.958;-7.470;2022-11-20T07:54:38;18.70;;;3.35;;
64252;SDS011;50592;52.958;-7.470;2022-11-20T07:57:03;23.63;;;3.38;;
64252;SDS011;50592;52.958;-7.470;2022-11-20T07:59:29;18.85;;;2.65;;
64252;SDS011;50592;52.958;-7.470;2022-11-20T08:01:55;16.67;;;2.05;;
64252;SDS011;50592;52.958;-7.470;2022-11-20T08:04:21;14.25;;;1.40;;
64252;SDS011;50592;52.958;-7.470;2022-11-20T08:06:46;15.60;;;1.77;;
64252;SDS011;50592;52.958;-7.470;2022-11-20T08:09:12;11.82;;;1.50;;
64252;SDS011;50592;52.958;-7.470;2022-11-20T08:11:38;15.43;;;2.47;;
64252;SDS011;50592;52.958;-7.470;2022-11-20T08:14:22;11.57;;;1.30;;
64252;SDS011;50592;52.958;-7.470;2022-11-20T08:16:48;15.70;;;2.10;;
64252;SDS011;50592;52.958;-7.470;2022-11-20T08:19:15;12.05;;;1.65;;
64252;SDS011;50592;52.958;-7.470;2022-11-20T08:21:42;12.57;;;2.25;;
64252;SDS011;50592;52.958;-7.470;2022-11-20T08:24:12;15.60;;;2.35;;
64252;SDS011;50592;52.958;-7.470;2022-11-20T08:26:38;15.98;;;1.90;;
64252;SDS011;50592;52.958;-7.470;2022-11-20T08:29:05;10.20;;;1.90;;
64252;SDS011;50592;52.958;-7.470;2022-11-20T08:31:31;10.75;;;1.40;;
64252;SDS011;50592;52.958;-7.470;2022-11-20T08:33:57;9.55;;;1.20;;
64252;SDS011;50592;52.958;-7.470;2022-11-20T08:36:23;13.05;;;0.98;;
64252;SDS011;50592;52.958;-7.470;2022-11-20T08:38:50;12.32;;;1.88;;
64252;SDS011;50592;52.958;-7.470;2022-11-20T08:41:17;6.97;;;0.90;;
64252;SDS011;50592;52.958;-7.470;2022-11-20T08:43:50;5.55;;;0.98;;
64252;SDS011;50592;52.958;-7.470;2022-11-20T08:46:17;6.47;;;1.02;;
64252;SDS011;50592;52.958;-7.470;2022-11-20T08:48:43;6.38;;;0.63;;
64252;SDS011;50592;52.958;-7.470;2022-11-20T08:51:09;9.23;;;1.38;;
64252;SDS011;50592;52.958;-7.470;2022-11-20T08:53:36;4.68;;;0.93;;
64252;SDS011;50592;52.958;-7.470;2022-11-20T08:56:03;5.90;;;0.73;;
64252;SDS011;50592;52.958;-7.470;2022-11-20T08:58:28;6.03;;;0.60;;
64252;SDS011;50592;52.958;-7.470;2022-11-20T09:00:54;7.47;;;0.47;;
64252;SDS011;50592;52.958;-7.470;2022-11-20T09:03:20;7.90;;;0.90;;
64252;SDS011;50592;52.958;-7.470;2022-11-20T09:05:45;4.60;;;1.13;;
64252;SDS011;50592;52.958;-7.470;2022-11-20T09:08:11;7.32;;;1.40;;
64252;SDS011;50592;52.958;-7.470;2022-11-20T09:10:37;11.20;;;0.88;;
64252;SDS011;50592;52.958;-7.470;2022-11-20T09:13:05;3.20;;;0.43;;
64252;SDS011;50592;52.958;-7.470;2022-11-20T09:15:31;1.38;;;0.20;;
64252;SDS011;50592;52.958;-7.470;2022-11-20T09:18:00;1.85;;;0.40;;
64252;SDS011;50592;52.958;-7.470;2022-11-20T09:20:28;2.05;;;0.20;;
64252;SDS011;50592;52.958;-7.470;2022-11-20T09:22:54;2.05;;;0.30;;
64252;SDS011;50592;52.958;-7.470;2022-11-20T09:25:20;2.28;;;0.60;;
64252;SDS011;50592;52.958;-7.470;2022-11-20T09:27:46;1.77;;;0.28;;
64252;SDS011;50592;52.958;-7.470;2022-11-20T09:30:13;3.75;;;0.30;;
64252;SDS011;50592;52.958;-7.470;2022-11-20T09:32:39;1.05;;;0.40;;
64252;SDS011;50592;52.958;-7.470;2022-11-20T09:35:05;0.10;;;0.10;;
64252;SDS011;50592;52.958;-7.470;2022-11-20T09:37:31;0.73;;;0.13;;
64252;SDS011;50592;52.958;-7.470;2022-11-20T09:39:57;1.58;;;0.17;;
64252;SDS011;50592;52.958;-7.470;2022-11-20T09:42:34;4.43;;;0.30;;
64252;SDS011;50592;52.958;-7.470;2022-11-20T09:45:14;1.88;;;0.08;;
64252;SDS011;50592;52.958;-7.470;2022-11-20T09:56:41;0.40;;;0.20;;
64252;SDS011;50592;52.958;-7.470;2022-11-20T09:59:19;2.60;;;0.22;;
64252;SDS011;50592;52.958;-7.470;2022-11-20T10:01:54;0.85;;;0.25;;
64252;SDS011;50592;52.958;-7.470;2022-11-20T10:04:20;3.97;;;0.40;;
64252;SDS011;50592;52.958;-7.470;2022-11-20T10:06:51;2.92;;;0.22;;
64252;SDS011;50592;52.958;-7.470;2022-11-20T10:09:28;0.47;;;0.20;;
64252;SDS011;50592;52.958;-7.470;2022-11-20T10:31:07;0.95;;;0.28;;
64252;SDS011;50592;52.958;-7.470;2022-11-20T10:33:37;1.48;;;0.20;;
64252;SDS011;50592;52.958;-7.470;2022-11-20T10:36:14;2.80;;;0.40;;
64252;SDS011;50592;52.958;-7.470;2022-11-20T10:38:50;0.65;;;0.20;;
64252;SDS011;50592;52.958;-7.470;2022-11-20T10:41:32;1.55;;;0.45;;
64252;SDS011;50592;52.958;-7.470;2022-11-20T10:44:03;2.78;;;0.30;;
64252;SDS011;50592;52.958;-7.470;2022-11-20T10:46:53;1.92;;;0.22;;
64252;SDS011;50592;52.958;-7.470;2022-11-20T10:49:37;0.55;;;0.20;;
64252;SDS011;50592;52.958;-7.470;2022-11-20T11:00:11;3.15;;;0.50;;
64252;SDS011;50592;52.958;-7.470;2022-11-20T11:02:48;3.33;;;0.77;;
64252;SDS011;50592;52.958;-7.470;2022-11-20T11:08:10;3.45;;;0.40;;
64252;SDS011;50592;52.958;-7.470;2022-11-20T11:10:42;5.43;;;0.45;;
64252;SDS011;50592;52.958;-7.470;2022-11-20T11:13:25;5.53;;;0.50;;
64252;SDS011;50592;52.958;-7.470;2022-11-20T11:15:52;2.72;;;0.63;;
64252;SDS011;50592;52.958;-7.470;2022-11-20T11:18:25;2.05;;;0.63;;
64252;SDS011;50592;52.958;-7.470;2022-11-20T11:20:56;5.93;;;0.60;;
64252;SDS011;50592;52.958;-7.470;2022-11-20T11:23:28;6.82;;;3.03;;
64252;SDS011;50592;52.958;-7.470;2022-11-20T11:25:58;2.47;;;0.65;;
64252;SDS011;50592;52.958;-7.470;2022-11-20T11:28:26;1.60;;;0.60;;
64252;SDS011;50592;52.958;-7.470;2022-11-20T11:30:53;2.97;;;0.63;;
64252;SDS011;50592;52.958;-7.470;2022-11-20T11:33:30;1.35;;;0.70;;
64252;SDS011;50592;52.958;-7.470;2022-11-20T11:36:03;3.83;;;0.70;;
64252;SDS011;50592;52.958;-7.470;2022-11-20T11:38:40;1.23;;;0.38;;
64252;SDS011;50592;52.958;-7.470;2022-11-20T11:41:09;5.40;;;0.77;;
64252;SDS011;50592;52.958;-7.470;2022-11-20T11:43:48;1.50;;;0.40;;
64252;SDS011;50592;52.958;-7.470;2022-11-20T11:46:36;1.83;;;0.63;;
64252;SDS011;50592;52.958;-7.470;2022-11-20T11:51:33;1.48;;;0.50;;
64252;SDS011;50592;52.958;-7.470;2022-11-20T11:54:22;1.85;;;0.43;;
64252;SDS011;50592;52.958;-7.470;2022-11-20T11:56:52;0.68;;;0.20;;
64252;SDS011;50592;52.958;-7.470;2022-11-20T11:59:26;1.05;;;0.20;;
64252;SDS011;50592;52.958;-7.470;2022-11-20T12:02:03;2.58;;;0.57;;
64252;SDS011;50592;52.958;-7.470;2022-11-20T12:04:42;3.30;;;0.60;;
64252;SDS011;50592;52.958;-7.470;2022-11-20T12:07:19;6.63;;;1.17;;
64252;SDS011;50592;52.958;-7.470;2022-11-20T12:10:04;4.78;;;0.60;;
64252;SDS011;50592;52.958;-7.470;2022-11-20T12:12:43;4.30;;;0.38;;
64252;SDS011;50592;52.958;-7.470;2022-11-20T12:15:16;1.83;;;0.50;;
64252;SDS011;50592;52.958;-7.470;2022-11-20T12:17:51;6.45;;;0.60;;
64252;SDS011;50592;52.958;-7.470;2022-11-20T12:20:17;5.35;;;0.90;;
64252;SDS011;50592;52.958;-7.470;2022-11-20T12:22:54;4.45;;;0.68;;
64252;SDS011;50592;52.958;-7.470;2022-11-20T12:25:27;2.08;;;0.40;;
64252;SDS011;50592;52.958;-7.470;2022-11-20T12:31:13;1.55;;;0.50;;
64252;SDS011;50592;52.958;-7.470;2022-11-20T12:33:53;3.60;;;0.35;;
64252;SDS011;50592;52.958;-7.470;2022-11-20T12:39:01;3.15;;;1.00;;
64252;SDS011;50592;52.958;-7.470;2022-11-20T12:45:02;1.88;;;0.32;;
64252;SDS011;50592;52.958;-7.470;2022-11-20T12:53:28;1.65;;;0.32;;
64252;SDS011;50592;52.958;-7.470;2022-11-20T12:59:20;6.07;;;0.90;;
64252;SDS011;50592;52.958;-7.470;2022-11-20T13:07:31;1.88;;;0.47;;
64252;SDS011;50592;52.958;-7.470;2022-11-20T13:10:00;3.85;;;0.75;;
64252;SDS011;50592;52.958;-7.470;2022-11-20T13:12:36;1.75;;;0.60;;
64252;SDS011;50592;52.958;-7.470;2022-11-20T13:18:03;4.18;;;1.08;;
64252;SDS011;50592;52.958;-7.470;2022-11-20T13:20:33;3.15;;;0.80;;
64252;SDS011;50592;52.958;-7.470;2022-11-20T13:23:00;9.93;;;1.20;;
64252;SDS011;50592;52.958;-7.470;2022-11-20T13:27:52;11.20;;;1.83;;
64252;SDS011;50592;52.958;-7.470;2022-11-20T13:30:22;5.70;;;0.90;;
64252;SDS011;50592;52.958;-7.470;2022-11-20T13:32:56;11.57;;;1.88;;
64252;SDS011;50592;52.958;-7.470;2022-11-20T13:35:55;7.00;;;0.80;;
64252;SDS011;50592;52.958;-7.470;2022-11-20T13:38:24;4.25;;;0.95;;
64252;SDS011;50592;52.958;-7.470;2022-11-20T13:43:19;12.77;;;1.63;;
64252;SDS011;50592;52.958;-7.470;2022-11-20T13:45:58;9.93;;;2.30;;
64252;SDS011;50592;52.958;-7.470;2022-11-20T13:48:32;7.03;;;1.40;;
64252;SDS011;50592;52.958;-7.470;2022-11-20T13:55:59;10.63;;;2.35;;
64252;SDS011;50592;52.958;-7.470;2022-11-20T14:01:16;8.85;;;1.60;;
64252;SDS011;50592;52.958;-7.470;2022-11-20T14:03:46;9.07;;;2.15;;
64252;SDS011;50592;52.958;-7.470;2022-11-20T14:08:57;6.40;;;1.35;;
64252;SDS011;50592;52.958;-7.470;2022-11-20T14:11:27;9.68;;;1.88;;
64252;SDS011;50592;52.958;-7.470;2022-11-20T14:14:04;6.53;;;1.38;;
64252;SDS011;50592;52.958;-7.470;2022-11-20T14:16:36;8.57;;;1.58;;
64252;SDS011;50592;52.958;-7.470;2022-11-20T14:22:16;11.23;;;2.10;;
64252;SDS011;50592;52.958;-7.470;2022-11-20T14:24:46;9.40;;;1.63;;
64252;SDS011;50592;52.958;-7.470;2022-11-20T14:27:27;15.55;;;2.53;;
64252;SDS011;50592;52.958;-7.470;2022-11-20T14:29:53;10.07;;;1.90;;
64252;SDS011;50592;52.958;-7.470;2022-11-20T14:32:21;13.82;;;2.40;;
64252;SDS011;50592;52.958;-7.470;2022-11-20T14:34:53;11.55;;;1.90;;
64252;SDS011;50592;52.958;-7.470;2022-11-20T14:37:21;7.47;;;1.60;;
64252;SDS011;50592;52.958;-7.470;2022-11-20T14:39:51;9.88;;;1.83;;
64252;SDS011;50592;52.958;-7.470;2022-11-20T14:42:19;9.77;;;2.08;;
64252;SDS011;50592;52.958;-7.470;2022-11-20T14:44:50;15.38;;;5.65;;
64252;SDS011;50592;52.958;-7.470;2022-11-20T14:47:18;11.93;;;2.00;;
64252;SDS011;50592;52.958;-7.470;2022-11-20T14:49:47;12.45;;;2.70;;
64252;SDS011;50592;52.958;-7.470;2022-11-20T14:52:17;6.35;;;1.85;;
64252;SDS011;50592;52.958;-7.470;2022-11-20T14:54:48;8.05;;;1.55;;
64252;SDS011;50592;52.958;-7.470;2022-11-20T14:57:34;13.15;;;2.10;;
64252;SDS011;50592;52.958;-7.470;2022-11-20T15:02:46;9.45;;;1.70;;
64252;SDS011;50592;52.958;-7.470;2022-11-20T15:05:14;17.00;;;1.80;;
64252;SDS011;50592;52.958;-7.470;2022-11-20T15:07:43;7.35;;;1.27;;
64252;SDS011;50592;52.958;-7.470;2022-11-20T15:13:29;8.88;;;2.40;;
64252;SDS011;50592;52.958;-7.470;2022-11-20T15:15:43;10.80;;;2.08;;
64252;SDS011;50592;52.958;-7.470;2022-11-20T15:18:14;15.10;;;6.18;;
64252;SDS011;50592;52.958;-7.470;2022-11-20T15:20:56;41.08;;;23.38;;
64252;SDS011;50592;52.958;-7.470;2022-11-20T15:23:26;17.33;;;5.25;;
64252;SDS011;50592;52.958;-7.470;2022-11-20T15:25:53;17.08;;;7.18;;
64252;SDS011;50592;52.958;-7.470;2022-11-20T15:28:21;22.55;;;12.85;;
64252;SDS011;50592;52.958;-7.470;2022-11-20T15:30:50;18.08;;;9.90;;
64252;SDS011;50592;52.958;-7.470;2022-11-20T15:33:16;28.92;;;13.68;;
64252;SDS011;50592;52.958;-7.470;2022-11-20T15:35:43;38.25;;;17.98;;
64252;SDS011;50592;52.958;-7.470;2022-11-20T15:38:09;82.50;;;37.67;;
64252;SDS011;50592;52.958;-7.470;2022-11-20T15:40:35;74.78;;;34.30;;
64252;SDS011;50592;52.958;-7.470;2022-11-20T15:43:01;67.00;;;31.98;;
64252;SDS011;50592;52.958;-7.470;2022-11-20T15:45:46;99.50;;;46.70;;
64252;SDS011;50592;52.958;-7.470;2022-11-20T15:48:21;113.00;;;53.03;;
64252;SDS011;50592;52.958;-7.470;2022-11-20T15:53:35;268.52;;;128.13;;
64252;SDS011;50592;52.958;-7.470;2022-11-20T15:56:02;98.95;;;49.03;;
64252;SDS011;50592;52.958;-7.470;2022-11-20T15:58:28;90.90;;;46.47;;
64252;SDS011;50592;52.958;-7.470;2022-11-20T16:00:54;114.70;;;65.82;;
64252;SDS011;50592;52.958;-7.470;2022-11-20T16:03:20;130.63;;;74.82;;
64252;SDS011;50592;52.958;-7.470;2022-11-20T16:05:46;132.52;;;77.43;;
64252;SDS011;50592;52.958;-7.470;2022-11-20T16:08:12;102.05;;;66.60;;
64252;SDS011;50592;52.958;-7.470;2022-11-20T16:10:41;55.20;;;36.50;;
64252;SDS011;50592;52.958;-7.470;2022-11-20T16:13:14;16.20;;;8.20;;
64252;SDS011;50592;52.958;-7.470;2022-11-20T16:16:01;23.45;;;12.38;;